Time;durP1;ratioP1;P1;durP2;ratioP2;P2;SDS_P1;SDS_P2;PMS_P1;PMS_P2;Temp;Humidity;BMP_temperature;BMP_pressure;BME280_temperature;BME280_humidity;BME280_pressure;Samples;Min_cycle;Max_cycle;Signal;HPM_P1;HPM_P2
2023/05/28 00:01:28;;;;;;;9.40;3.63;;;;;;;;;;7372563;19;20014;-70
2023/05/28 00:03:54;;;;;;;9.52;3.55;;;;;;;;;;7374546;19;20003;-69
2023/05/28 00:06:19;;;;;;;7.15;3.15;;;;;;;;;;7391398;19;20524;-69
2023/05/28 00:08:45;;;;;;;8.88;3.47;;;;;;;;;;7364589;19;20465;-69
2023/05/28 00:11:10;;;;;;;8.10;3.45;;;;;;;;;;7366027;19;20011;-68
2023/05/28 00:13:36;;;;;;;7.63;3.00;;;;;;;;;;7365794;19;20449;-69
2023/05/28 00:16:01;;;;;;;10.63;3.67;;;;;;;;;;7366244;19;20043;-69
2023/05/28 00:18:28;;;;;;;11.38;3.50;;;;;;;;;;7387437;19;19994;-69
2023/05/28 00:20:53;;;;;;;9.98;3.33;;;;;;;;;;7379532;19;20019;-69
2023/05/28 00:23:19;;;;;;;9.27;3.30;;;;;;;;;;7391306;19;19998;-69
2023/05/28 00:25:44;;;;;;;11.20;3.75;;;;;;;;;;7390820;19;20013;-69
2023/05/28 00:28:10;;;;;;;9.20;3.80;;;;;;;;;;7383027;19;20006;-70
2023/05/28 00:30:35;;;;;;;8.32;3.38;;;;;;;;;;7381441;19;19999;-69
2023/05/28 00:33:01;;;;;;;9.18;3.67;;;;;;;;;;7395785;19;20464;-69
2023/05/28 00:35:26;;;;;;;10.23;3.50;;;;;;;;;;7374298;19;20006;-69
2023/05/28 00:37:52;;;;;;;6.90;3.05;;;;;;;;;;7373153;19;20003;-69
2023/05/28 00:40:18;;;;;;;6.53;3.05;;;;;;;;;;7374983;19;20129;-69
2023/05/28 00:42:44;;;;;;;10.50;3.28;;;;;;;;;;7375115;19;20025;-69
2023/05/28 00:45:11;;;;;;;7.72;3.20;;;;;;;;;;7395849;19;20009;-69
2023/05/28 00:47:37;;;;;;;12.65;4.15;;;;;;;;;;7370243;19;20011;-69
2023/05/28 00:50:05;;;;;;;8.85;3.30;;;;;;;;;;7374232;19;20010;-69
2023/05/28 00:52:30;;;;;;;11.27;3.33;;;;;;;;;;7373070;19;20007;-69
2023/05/28 00:54:55;;;;;;;12.10;3.25;;;;;;;;;;7374112;19;20010;-69
2023/05/28 00:57:23;;;;;;;9.90;3.55;;;;;;;;;;7394050;19;20122;-69
2023/05/28 00:59:50;;;;;;;7.38;3.33;;;;;;;;;;7370243;19;20019;-69
2023/05/28 01:02:15;;;;;;;10.57;3.35;;;;;;;;;;7374228;19;20611;-69
2023/05/28 01:04:41;;;;;;;7.78;3.40;;;;;;;;;;7373576;19;20021;-69
2023/05/28 01:07:06;;;;;;;9.13;3.58;;;;;;;;;;7372586;19;20017;-69
2023/05/28 01:09:32;;;;;;;10.55;3.38;;;;;;;;;;7393601;19;20485;-69
2023/05/28 01:11:58;;;;;;;7.47;3.10;;;;;;;;;;7375070;19;20022;-69
2023/05/28 01:14:24;;;;;;;9.68;4.22;;;;;;;;;;7375224;19;20043;-70
2023/05/28 01:16:50;;;;;;;9.25;3.63;;;;;;;;;;7376280;19;20114;-69
2023/05/28 01:19:18;;;;;;;10.88;3.63;;;;;;;;;;7375513;19;20073;-69
2023/05/28 01:21:45;;;;;;;7.03;3.03;;;;;;;;;;7379266;19;20394;-69
2023/05/28 01:24:13;;;;;;;11.32;3.35;;;;;;;;;;7401920;19;20398;-69
2023/05/28 01:26:40;;;;;;;9.50;3.33;;;;;;;;;;7376167;19;20010;-69
2023/05/28 01:29:17;;;;;;;8.57;3.70;;;;;;;;;;7379835;19;20105;-69
2023/05/28 01:31:43;;;;;;;10.15;3.22;;;;;;;;;;7381369;19;20019;-69
2023/05/28 01:34:10;;;;;;;7.43;3.45;;;;;;;;;;7382412;19;20046;-69
2023/05/28 01:36:38;;;;;;;11.35;3.53;;;;;;;;;;7385830;19;20007;-69
2023/05/28 01:39:04;;;;;;;10.00;3.40;;;;;;;;;;7403076;19;20007;-69
2023/05/28 01:41:30;;;;;;;10.45;3.63;;;;;;;;;;7383323;19;20014;-69
2023/05/28 01:43:56;;;;;;;7.50;3.20;;;;;;;;;;7383851;19;20369;-69
2023/05/28 01:46:22;;;;;;;11.85;3.88;;;;;;;;;;7381718;19;20014;-69
2023/05/28 01:48:47;;;;;;;10.40;3.75;;;;;;;;;;7372496;19;20006;-69
2023/05/28 01:51:20;;;;;;;9.52;3.72;;;;;;;;;;7394943;19;20036;-70
2023/05/28 01:53:46;;;;;;;8.90;3.17;;;;;;;;;;7381282;19;20389;-70
2023/05/28 01:56:11;;;;;;;8.02;3.38;;;;;;;;;;7380316;19;20007;-70
2023/05/28 01:58:36;;;;;;;9.93;3.47;;;;;;;;;;7378343;19;20014;-70
2023/05/28 02:01:24;;;;;;;7.45;3.42;;;;;;;;;;7382909;19;20007;-69
2023/05/28 02:03:50;;;;;;;10.85;3.58;;;;;;;;;;7385419;19;20010;-69
2023/05/28 02:06:15;;;;;;;8.45;3.63;;;;;;;;;;7402846;19;20005;-69
2023/05/28 02:08:40;;;;;;;9.30;3.33;;;;;;;;;;7379883;19;20002;-69
2023/05/28 02:11:06;;;;;;;8.15;3.42;;;;;;;;;;7387756;19;20010;-69
2023/05/28 02:13:31;;;;;;;8.73;3.80;;;;;;;;;;7384307;19;20407;-69
2023/05/28 02:15:57;;;;;;;12.93;3.95;;;;;;;;;;7384950;19;20307;-71
2023/05/28 02:18:22;;;;;;;7.60;3.45;;;;;;;;;;7403273;19;20002;-70
2023/05/28 02:20:47;;;;;;;9.93;3.30;;;;;;;;;;7380705;19;20018;-69
2023/05/28 02:23:13;;;;;;;11.73;3.95;;;;;;;;;;7386301;19;20074;-69
2023/05/28 02:25:38;;;;;;;7.43;3.70;;;;;;;;;;7383311;19;20014;-69
2023/05/28 02:28:04;;;;;;;9.18;3.92;;;;;;;;;;7380835;19;20077;-70
2023/05/28 02:30:29;;;;;;;8.57;3.80;;;;;;;;;;7405678;19;20424;-70
2023/05/28 02:32:55;;;;;;;9.23;3.78;;;;;;;;;;7388849;19;20014;-70
2023/05/28 02:35:21;;;;;;;8.63;3.35;;;;;;;;;;7386174;19;20058;-70
2023/05/28 02:37:46;;;;;;;10.63;4.05;;;;;;;;;;7381289;19;20031;-70
2023/05/28 02:40:13;;;;;;;10.57;3.90;;;;;;;;;;7383300;19;20014;-70
2023/05/28 02:42:38;;;;;;;8.27;3.78;;;;;;;;;;7382257;19;20006;-70
2023/05/28 02:45:05;;;;;;;9.32;4.00;;;;;;;;;;7404852;19;19999;-70
2023/05/28 02:47:30;;;;;;;10.30;3.72;;;;;;;;;;7381045;19;20060;-70
2023/05/28 02:49:55;;;;;;;7.32;3.83;;;;;;;;;;7386307;19;20031;-70
2023/05/28 02:52:20;;;;;;;10.77;3.40;;;;;;;;;;7385737;19;20025;-69
2023/05/28 02:54:46;;;;;;;8.98;3.75;;;;;;;;;;7385430;19;20476;-69
2023/05/28 02:57:11;;;;;;;10.07;4.03;;;;;;;;;;7406063;19;20010;-69
2023/05/28 02:59:37;;;;;;;8.70;3.33;;;;;;;;;;7383315;19;20002;-69
2023/05/28 03:02:02;;;;;;;9.30;3.95;;;;;;;;;;7384917;19;20003;-69
2023/05/28 03:04:28;;;;;;;9.52;4.03;;;;;;;;;;7384770;19;20007;-69
2023/05/28 03:06:53;;;;;;;10.15;4.55;;;;;;;;;;7385934;19;20007;-69
2023/05/28 03:09:18;;;;;;;10.38;4.07;;;;;;;;;;7403605;19;20597;-69
2023/05/28 03:11:44;;;;;;;7.18;3.47;;;;;;;;;;7382172;19;20432;-69
2023/05/28 03:14:09;;;;;;;10.73;4.00;;;;;;;;;;7381918;19;20023;-69
2023/05/28 03:16:36;;;;;;;10.70;3.70;;;;;;;;;;7383575;19;20045;-69
2023/05/28 03:19:02;;;;;;;10.77;3.70;;;;;;;;;;7384678;19;20010;-69
2023/05/28 03:21:27;;;;;;;9.52;3.90;;;;;;;;;;7407847;19;20062;-69
2023/05/28 03:23:52;;;;;;;14.55;3.90;;;;;;;;;;7390087;19;19998;-69
2023/05/28 03:26:18;;;;;;;11.20;4.03;;;;;;;;;;7391075;19;20014;-70
2023/05/28 03:28:43;;;;;;;9.43;3.40;;;;;;;;;;7389460;19;20014;-69
2023/05/28 03:31:09;;;;;;;9.30;3.88;;;;;;;;;;7385785;19;20021;-70
2023/05/28 03:33:34;;;;;;;13.05;3.85;;;;;;;;;;7393305;19;20003;-69
2023/05/28 03:35:59;;;;;;;7.82;3.38;;;;;;;;;;7387054;19;20010;-69
2023/05/28 03:38:25;;;;;;;9.70;4.05;;;;;;;;;;7388147;19;20007;-69
2023/05/28 03:40:50;;;;;;;14.75;4.07;;;;;;;;;;7374623;19;20036;-69
2023/05/28 03:43:15;;;;;;;7.63;3.35;;;;;;;;;;7378991;19;20007;-69
2023/05/28 03:45:41;;;;;;;11.13;3.95;;;;;;;;;;7380499;19;20357;-69
2023/05/28 03:48:06;;;;;;;10.93;3.75;;;;;;;;;;7398987;19;20021;-69
2023/05/28 03:50:32;;;;;;;10.77;4.13;;;;;;;;;;7380384;19;20007;-69
2023/05/28 03:52:57;;;;;;;11.02;4.25;;;;;;;;;;7381628;19;20011;-69
2023/05/28 03:55:22;;;;;;;7.40;3.53;;;;;;;;;;7379734;19;20074;-68
2023/05/28 03:57:48;;;;;;;9.57;4.55;;;;;;;;;;7382758;19;20019;-69
2023/05/28 04:00:14;;;;;;;9.02;4.15;;;;;;;;;;7405212;19;20005;-69
2023/05/28 04:02:39;;;;;;;9.02;3.45;;;;;;;;;;7383426;19;20031;-69
2023/05/28 04:05:05;;;;;;;8.02;3.65;;;;;;;;;;7382981;19;20014;-69
2023/05/28 04:07:30;;;;;;;8.30;3.13;;;;;;;;;;7382421;19;20014;-69
2023/05/28 04:09:56;;;;;;;7.20;3.50;;;;;;;;;;7382368;19;20015;-69
2023/05/28 04:12:21;;;;;;;7.90;3.20;;;;;;;;;;7405677;19;20681;-69
2023/05/28 04:14:46;;;;;;;8.25;3.28;;;;;;;;;;7382933;19;20435;-69
2023/05/28 04:17:12;;;;;;;8.93;3.58;;;;;;;;;;7383328;19;20023;-70
2023/05/28 04:19:38;;;;;;;8.40;3.50;;;;;;;;;;7381331;19;20073;-69
2023/05/28 04:22:05;;;;;;;11.10;4.15;;;;;;;;;;7383296;19;20012;-69
2023/05/28 04:24:30;;;;;;;9.05;4.03;;;;;;;;;;7406007;19;20024;-69
2023/05/28 04:26:56;;;;;;;9.95;3.50;;;;;;;;;;7380010;19;20480;-68
2023/05/28 04:29:24;;;;;;;9.70;3.75;;;;;;;;;;7382562;19;20067;-69
2023/05/28 04:31:50;;;;;;;8.45;3.97;;;;;;;;;;7381867;19;20030;-69
2023/05/28 04:34:19;;;;;;;11.30;4.20;;;;;;;;;;7382729;19;20124;-69
2023/05/28 04:36:44;;;;;;;9.70;3.72;;;;;;;;;;7380761;19;20509;-69
2023/05/28 04:39:10;;;;;;;9.98;3.88;;;;;;;;;;7402530;19;20011;-69
2023/05/28 04:41:35;;;;;;;11.50;3.80;;;;;;;;;;7381599;19;20031;-69
2023/05/28 04:44:03;;;;;;;9.77;3.78;;;;;;;;;;7379226;19;20017;-69
2023/05/28 04:46:29;;;;;;;9.77;3.90;;;;;;;;;;7382171;19;20007;-69
2023/05/28 04:48:55;;;;;;;10.68;4.03;;;;;;;;;;7381140;19;20371;-69
2023/05/28 04:51:21;;;;;;;9.65;4.30;;;;;;;;;;7402945;19;20003;-69
2023/05/28 04:53:47;;;;;;;8.63;4.30;;;;;;;;;;7386639;19;19999;-69
2023/05/28 04:56:13;;;;;;;9.32;4.00;;;;;;;;;;7390071;19;20003;-69
2023/05/28 04:58:38;;;;;;;8.63;3.90;;;;;;;;;;7383190;19;20055;-69
2023/05/28 05:01:04;;;;;;;8.10;4.05;;;;;;;;;;7381417;19;20006;-69
2023/05/28 05:03:31;;;;;;;8.68;3.90;;;;;;;;;;7404279;19;20016;-69
2023/05/28 05:05:57;;;;;;;8.70;3.60;;;;;;;;;;7380828;19;19998;-69
2023/05/28 05:08:22;;;;;;;7.45;3.45;;;;;;;;;;7370274;19;20530;-69
2023/05/28 05:10:48;;;;;;;7.93;3.95;;;;;;;;;;7375371;19;20531;-69
2023/05/28 05:13:14;;;;;;;11.25;4.03;;;;;;;;;;7374542;19;20424;-69
2023/05/28 05:15:39;;;;;;;9.40;4.10;;;;;;;;;;7380881;19;19991;-69
2023/05/28 05:18:05;;;;;;;8.30;3.58;;;;;;;;;;7395412;19;20002;-69
2023/05/28 05:20:30;;;;;;;9.98;3.80;;;;;;;;;;7374576;19;20007;-69
2023/05/28 05:22:56;;;;;;;11.48;4.43;;;;;;;;;;7374712;19;20010;-69
2023/05/28 05:25:22;;;;;;;10.00;4.20;;;;;;;;;;7373967;19;20010;-69
2023/05/28 05:27:51;;;;;;;9.07;3.88;;;;;;;;;;7371407;19;20009;-70
2023/05/28 05:30:16;;;;;;;6.80;3.53;;;;;;;;;;7395226;19;20005;-69
2023/05/28 05:32:42;;;;;;;8.43;4.00;;;;;;;;;;7373853;19;20349;-69
2023/05/28 05:35:08;;;;;;;8.52;3.78;;;;;;;;;;7372907;19;20006;-69
2023/05/28 05:37:33;;;;;;;5.80;2.90;;;;;;;;;;7373243;19;20010;-69
2023/05/28 05:39:58;;;;;;;8.65;3.55;;;;;;;;;;7371972;19;20015;-69
2023/05/28 05:42:23;;;;;;;10.05;3.88;;;;;;;;;;7395882;19;20013;-72
2023/05/28 05:44:49;;;;;;;7.82;3.55;;;;;;;;;;7373250;19;20019;-71
2023/05/28 05:47:14;;;;;;;6.93;3.40;;;;;;;;;;7371967;19;20094;-71
2023/05/28 05:49:39;;;;;;;8.43;3.88;;;;;;;;;;7371194;19;20489;-71
2023/05/28 05:52:05;;;;;;;6.55;3.22;;;;;;;;;;7373479;19;20357;-71
2023/05/28 05:54:30;;;;;;;7.50;3.45;;;;;;;;;;7394841;19;20003;-71
2023/05/28 05:56:56;;;;;;;10.95;3.50;;;;;;;;;;7372339;19;20070;-69
2023/05/28 05:59:21;;;;;;;7.55;3.88;;;;;;;;;;7371948;19;20010;-69
2023/05/28 06:01:46;;;;;;;8.52;3.85;;;;;;;;;;7368026;19;20620;-70
2023/05/28 06:04:12;;;;;;;6.95;3.47;;;;;;;;;;7368041;19;20006;-69
2023/05/28 06:06:38;;;;;;;8.50;3.28;;;;;;;;;;7368699;19;20013;-69
2023/05/28 06:09:04;;;;;;;8.75;3.35;;;;;;;;;;7387369;19;20007;-70
2023/05/28 06:11:30;;;;;;;9.63;3.50;;;;;;;;;;7369068;19;20013;-70
2023/05/28 06:13:55;;;;;;;8.20;3.80;;;;;;;;;;7369002;19;20003;-70
2023/05/28 06:16:21;;;;;;;6.97;3.40;;;;;;;;;;7368543;19;20018;-71
2023/05/28 06:18:47;;;;;;;11.43;3.55;;;;;;;;;;7365932;19;20009;-68
2023/05/28 06:21:12;;;;;;;8.43;3.38;;;;;;;;;;7391213;19;19999;-69
2023/05/28 06:23:37;;;;;;;7.00;3.20;;;;;;;;;;7371562;19;20006;-69
2023/05/28 06:26:03;;;;;;;9.20;3.45;;;;;;;;;;7370905;19;20497;-69
2023/05/28 06:28:28;;;;;;;3.95;2.55;;;;;;;;;;7367457;19;20018;-69
2023/05/28 06:30:54;;;;;;;11.63;3.83;;;;;;;;;;7369941;19;20020;-70
2023/05/28 06:33:20;;;;;;;6.70;3.60;;;;;;;;;;7394944;19;20014;-69
2023/05/28 06:35:45;;;;;;;9.50;3.30;;;;;;;;;;7374249;19;20105;-69
2023/05/28 06:38:11;;;;;;;8.40;3.38;;;;;;;;;;7368944;19;20579;-70
2023/05/28 06:40:36;;;;;;;8.50;3.58;;;;;;;;;;7367276;19;20699;-70
2023/05/28 06:43:02;;;;;;;12.77;2.83;;;;;;;;;;7373038;19;20021;-69
2023/05/28 06:45:28;;;;;;;8.15;3.25;;;;;;;;;;7392295;19;20014;-69
2023/05/28 06:47:54;;;;;;;12.10;3.15;;;;;;;;;;7368205;19;20019;-70
2023/05/28 06:50:19;;;;;;;8.98;3.67;;;;;;;;;;7370256;19;20002;-70
2023/05/28 06:52:44;;;;;;;9.40;3.42;;;;;;;;;;7371303;19;20006;-70
2023/05/28 06:55:10;;;;;;;6.05;3.30;;;;;;;;;;7369687;19;20366;-69
2023/05/28 06:57:36;;;;;;;9.52;3.55;;;;;;;;;;7368929;19;20785;-70
2023/05/28 07:00:13;;;;;;;7.95;3.20;;;;;;;;;;7392844;19;20009;-70
2023/05/28 07:02:41;;;;;;;10.65;3.20;;;;;;;;;;7370473;19;20073;-70
2023/05/28 07:05:07;;;;;;;10.25;3.95;;;;;;;;;;7371253;19;20048;-70
2023/05/28 07:07:32;;;;;;;6.55;3.13;;;;;;;;;;7369798;19;20010;-70
2023/05/28 07:10:01;;;;;;;6.60;3.20;;;;;;;;;;7370224;19;20014;-70
2023/05/28 07:12:26;;;;;;;8.43;3.17;;;;;;;;;;7394212;19;20013;-70
2023/05/28 07:14:51;;;;;;;6.10;3.10;;;;;;;;;;7369439;19;20010;-70
2023/05/28 07:17:17;;;;;;;8.30;3.10;;;;;;;;;;7368843;19;20075;-70
2023/05/28 07:19:42;;;;;;;7.28;3.25;;;;;;;;;;7369043;19;20010;-70
2023/05/28 07:22:07;;;;;;;5.32;2.53;;;;;;;;;;7371035;19;20043;-70
2023/05/28 07:24:33;;;;;;;9.23;3.45;;;;;;;;;;7391764;19;20006;-70
2023/05/28 07:26:58;;;;;;;8.90;3.40;;;;;;;;;;7368054;19;20007;-70
2023/05/28 07:29:26;;;;;;;7.68;3.33;;;;;;;;;;7368361;19;20480;-70
2023/05/28 07:31:52;;;;;;;11.68;3.22;;;;;;;;;;7368922;19;20016;-71
2023/05/28 07:34:17;;;;;;;7.07;3.25;;;;;;;;;;7368095;19;20213;-70
2023/05/28 07:36:43;;;;;;;10.80;3.58;;;;;;;;;;7368769;19;20010;-70
2023/05/28 07:39:10;;;;;;;7.55;3.30;;;;;;;;;;7390773;19;20008;-70
2023/05/28 07:41:35;;;;;;;5.43;2.63;;;;;;;;;;7370189;19;20098;-70
2023/05/28 07:44:00;;;;;;;11.15;3.47;;;;;;;;;;7370800;19;20018;-69
2023/05/28 07:46:26;;;;;;;7.60;2.92;;;;;;;;;;7368987;19;20104;-70
2023/05/28 07:48:51;;;;;;;9.05;3.65;;;;;;;;;;7368423;19;19998;-70
2023/05/28 07:51:17;;;;;;;9.23;3.58;;;;;;;;;;7390831;19;20006;-70
2023/05/28 07:53:43;;;;;;;9.15;3.03;;;;;;;;;;7367010;19;20018;-70
2023/05/28 07:56:08;;;;;;;7.18;2.80;;;;;;;;;;7365540;19;20014;-72
2023/05/28 07:58:34;;;;;;;9.80;3.42;;;;;;;;;;7363615;19;20392;-70
2023/05/28 08:00:59;;;;;;;7.22;3.38;;;;;;;;;;7363398;19;20034;-70
2023/05/28 08:03:27;;;;;;;6.43;2.80;;;;;;;;;;7389813;19;20019;-70
2023/05/28 08:05:52;;;;;;;7.72;2.63;;;;;;;;;;7365745;19;20053;-70
2023/05/28 08:08:18;;;;;;;7.57;3.17;;;;;;;;;;7365111;19;20014;-70
2023/05/28 08:10:43;;;;;;;7.78;3.40;;;;;;;;;;7368551;19;20014;-70
2023/05/28 08:13:09;;;;;;;6.80;3.13;;;;;;;;;;7368444;19;20329;-70
2023/05/28 08:15:35;;;;;;;10.88;3.65;;;;;;;;;;7384352;19;20014;-69
2023/05/28 08:18:01;;;;;;;8.57;3.45;;;;;;;;;;7387328;19;20006;-70
2023/05/28 08:20:26;;;;;;;6.13;3.03;;;;;;;;;;7364691;19;20015;-69
2023/05/28 08:22:52;;;;;;;9.68;3.33;;;;;;;;;;7363766;19;20023;-70
2023/05/28 08:25:17;;;;;;;9.57;3.42;;;;;;;;;;7364231;19;20403;-71
2023/05/28 08:27:42;;;;;;;12.95;3.63;;;;;;;;;;7365130;19;20018;-70
2023/05/28 08:30:08;;;;;;;6.50;3.10;;;;;;;;;;7387635;19;20015;-70
2023/05/28 08:32:34;;;;;;;7.60;3.30;;;;;;;;;;7366733;19;20413;-69
2023/05/28 08:34:59;;;;;;;7.35;3.35;;;;;;;;;;7369232;19;20006;-69
2023/05/28 08:37:25;;;;;;;7.57;3.38;;;;;;;;;;7369267;19;20018;-69
2023/05/28 08:39:50;;;;;;;7.90;3.30;;;;;;;;;;7378221;19;20058;-70
2023/05/28 08:42:16;;;;;;;7.43;3.20;;;;;;;;;;7403784;19;20015;-69
2023/05/28 08:44:42;;;;;;;8.75;3.38;;;;;;;;;;7377653;19;19999;-69
2023/05/28 08:47:07;;;;;;;8.32;3.00;;;;;;;;;;7371983;19;20011;-69
2023/05/28 08:49:40;;;;;;;7.13;3.35;;;;;;;;;;7372904;19;20010;-70
2023/05/28 08:52:08;;;;;;;8.35;3.40;;;;;;;;;;7373462;19;20022;-69
2023/05/28 08:54:34;;;;;;;6.82;3.42;;;;;;;;;;7397352;19;20037;-70
2023/05/28 08:57:00;;;;;;;7.13;3.50;;;;;;;;;;7372903;19;20691;-69
2023/05/28 08:59:27;;;;;;;7.07;3.30;;;;;;;;;;7371895;19;20007;-70
2023/05/28 09:01:52;;;;;;;8.60;3.70;;;;;;;;;;7373130;19;20014;-69
2023/05/28 09:04:18;;;;;;;10.10;3.80;;;;;;;;;;7373767;19;20078;-70
2023/05/28 09:06:43;;;;;;;10.90;3.38;;;;;;;;;;7373404;19;20039;-70
2023/05/28 09:09:09;;;;;;;9.25;3.50;;;;;;;;;;7393187;19;19998;-70
2023/05/28 09:11:35;;;;;;;5.90;3.25;;;;;;;;;;7374186;19;20041;-70
2023/05/28 09:14:11;;;;;;;7.88;3.30;;;;;;;;;;7374408;19;20003;-70
2023/05/28 09:16:43;;;;;;;8.95;3.58;;;;;;;;;;7373929;19;20007;-71
2023/05/28 09:19:09;;;;;;;8.10;3.50;;;;;;;;;;7372886;19;20449;-69
2023/05/28 09:21:36;;;;;;;7.80;3.53;;;;;;;;;;7389833;19;20011;-69
2023/05/28 09:24:02;;;;;;;10.13;3.47;;;;;;;;;;7396592;19;20006;-69
2023/05/28 09:26:30;;;;;;;7.72;2.83;;;;;;;;;;7370758;19;20007;-70
2023/05/28 09:28:55;;;;;;;7.78;3.33;;;;;;;;;;7372142;19;20422;-69
2023/05/28 09:31:28;;;;;;;9.80;3.53;;;;;;;;;;7374217;19;20010;-69
2023/05/28 09:33:53;;;;;;;8.60;3.47;;;;;;;;;;7373103;19;20007;-70
2023/05/28 09:36:19;;;;;;;13.15;3.88;;;;;;;;;;7390783;19;20638;-70
2023/05/28 09:38:44;;;;;;;11.77;4.32;;;;;;;;;;7367173;19;20010;-69
2023/05/28 09:41:20;;;;;;;9.18;3.90;;;;;;;;;;7364106;19;20018;-70
2023/05/28 09:43:46;;;;;;;10.02;3.30;;;;;;;;;;7364316;19;20106;-70
2023/05/28 09:46:11;;;;;;;9.57;3.78;;;;;;;;;;7366799;19;20022;-70
2023/05/28 09:48:36;;;;;;;6.38;2.90;;;;;;;;;;7363309;19;20357;-68
2023/05/28 09:51:04;;;;;;;11.40;3.63;;;;;;;;;;7386568;19;20018;-70
2023/05/28 09:53:36;;;;;;;7.35;3.30;;;;;;;;;;7365565;19;20808;-70
2023/05/28 09:56:03;;;;;;;7.78;3.72;;;;;;;;;;7367574;19;20049;-69
2023/05/28 09:58:34;;;;;;;8.00;3.55;;;;;;;;;;7368909;19;20017;-70
2023/05/28 10:01:06;;;;;;;6.45;3.50;;;;;;;;;;7363405;19;20018;-70
2023/05/28 10:03:38;;;;;;;7.70;2.95;;;;;;;;;;7392317;19;20359;-69
2023/05/28 10:06:13;;;;;;;8.07;3.28;;;;;;;;;;7369845;19;20006;-70
2023/05/28 10:08:41;;;;;;;10.23;3.50;;;;;;;;;;7364283;19;20010;-69
2023/05/28 10:11:10;;;;;;;8.00;3.45;;;;;;;;;;7370906;19;20801;-70
2023/05/28 10:13:36;;;;;;;10.05;3.88;;;;;;;;;;7365500;19;20437;-70
2023/05/28 10:16:03;;;;;;;7.78;3.60;;;;;;;;;;7367547;19;20014;-70
2023/05/28 10:18:29;;;;;;;6.60;3.20;;;;;;;;;;7385202;19;20017;-70
2023/05/28 10:20:55;;;;;;;10.68;3.47;;;;;;;;;;7361571;19;20010;-70
2023/05/28 10:23:22;;;;;;;7.38;2.80;;;;;;;;;;7370729;19;20016;-69
2023/05/28 10:25:48;;;;;;;6.80;2.85;;;;;;;;;;7371429;19;20019;-69
2023/05/28 10:28:15;;;;;;;13.13;3.40;;;;;;;;;;7373087;19;20002;-69
2023/05/28 10:30:40;;;;;;;7.07;3.20;;;;;;;;;;7367992;19;20025;-70
2023/05/28 10:33:08;;;;;;;8.02;3.30;;;;;;;;;;7387357;19;19999;-71
2023/05/28 10:35:35;;;;;;;8.63;3.05;;;;;;;;;;7366398;19;20054;-69
2023/05/28 10:38:08;;;;;;;7.70;3.35;;;;;;;;;;7363479;19;20499;-70
2023/05/28 10:40:34;;;;;;;8.55;3.70;;;;;;;;;;7362339;19;20013;-70
2023/05/28 10:43:00;;;;;;;6.03;2.90;;;;;;;;;;7356578;19;20101;-72
2023/05/28 10:45:36;;;;;;;8.02;3.58;;;;;;;;;;7374601;19;20051;-69
2023/05/28 10:48:02;;;;;;;10.77;3.65;;;;;;;;;;7360158;19;20006;-71
2023/05/28 10:50:27;;;;;;;7.63;3.58;;;;;;;;;;7357805;19;20697;-71
2023/05/28 10:53:07;;;;;;;6.05;3.25;;;;;;;;;;7366170;19;20006;-69
2023/05/28 10:58:36;;;;;;;11.63;3.60;;;;;;;;;;7387799;19;19911;-70
2023/05/28 11:01:22;;;;;;;8.35;3.25;;;;;;;;;;7364521;19;20010;-71
2023/05/28 11:03:54;;;;;;;8.50;3.60;;;;;;;;;;7363952;19;20464;-70
2023/05/28 11:08:49;;;;;;;9.32;3.58;;;;;;;;;;7359461;19;20027;-69
2023/05/28 11:11:33;;;;;;;12.63;3.65;;;;;;;;;;7362947;19;20019;-69
2023/05/28 11:14:00;;;;;;;10.77;3.65;;;;;;;;;;7364424;19;20503;-69
2023/05/28 11:16:26;;;;;;;7.47;3.45;;;;;;;;;;7360145;19;20018;-69
2023/05/28 11:19:05;;;;;;;11.50;3.60;;;;;;;;;;7363523;19;20024;-70
2023/05/28 11:21:32;;;;;;;8.50;3.17;;;;;;;;;;7389354;19;20006;-69
2023/05/28 11:24:05;;;;;;;8.18;3.40;;;;;;;;;;7367358;19;20251;-70
2023/05/28 11:26:33;;;;;;;9.30;3.78;;;;;;;;;;7370324;19;20007;-69
2023/05/28 11:28:59;;;;;;;8.10;3.75;;;;;;;;;;7371254;19;20006;-70
2023/05/28 11:31:24;;;;;;;7.13;3.42;;;;;;;;;;7375903;19;20116;-70
2023/05/28 11:33:50;;;;;;;10.10;3.90;;;;;;;;;;7377416;19;20006;-70
2023/05/28 11:36:17;;;;;;;8.38;3.42;;;;;;;;;;7401147;19;20516;-70
2023/05/28 11:38:43;;;;;;;11.98;3.60;;;;;;;;;;7375279;19;20010;-69
2023/05/28 11:41:08;;;;;;;7.07;3.40;;;;;;;;;;7378304;19;20018;-69
2023/05/28 11:43:33;;;;;;;8.82;3.50;;;;;;;;;;7374846;19;20037;-71
2023/05/28 11:46:00;;;;;;;10.35;4.03;;;;;;;;;;7372666;19;20511;-70
2023/05/28 11:48:28;;;;;;;8.98;3.55;;;;;;;;;;7392801;19;20010;-71
2023/05/28 11:51:00;;;;;;;8.85;3.53;;;;;;;;;;7375089;19;20019;-70
2023/05/28 11:53:42;;;;;;;8.50;3.55;;;;;;;;;;7372936;19;20086;-71
2023/05/28 11:56:09;;;;;;;7.07;3.42;;;;;;;;;;7373440;19;20021;-70
2023/05/28 11:58:40;;;;;;;7.30;3.47;;;;;;;;;;7371501;19;20505;-70
2023/05/28 12:01:06;;;;;;;10.73;3.42;;;;;;;;;;7371969;19;20027;-70
2023/05/28 12:03:32;;;;;;;8.98;3.95;;;;;;;;;;7391129;19;20014;-70
2023/05/28 12:05:57;;;;;;;8.38;3.80;;;;;;;;;;7364082;19;20014;-70
2023/05/28 12:08:22;;;;;;;7.15;3.45;;;;;;;;;;7364368;19;20029;-69
2023/05/28 12:10:48;;;;;;;7.75;3.63;;;;;;;;;;7367641;19;20073;-70
2023/05/28 12:13:13;;;;;;;7.97;3.75;;;;;;;;;;7368622;19;20014;-70
2023/05/28 12:15:39;;;;;;;6.38;3.60;;;;;;;;;;7366265;19;20425;-69
2023/05/28 12:18:05;;;;;;;8.07;3.80;;;;;;;;;;7391081;19;20010;-69
2023/05/28 12:20:31;;;;;;;7.07;3.45;;;;;;;;;;7373542;19;20006;-69
2023/05/28 12:23:06;;;;;;;8.65;4.00;;;;;;;;;;7374917;19;20006;-70
2023/05/28 12:25:38;;;;;;;8.88;3.88;;;;;;;;;;7373568;19;20072;-70
2023/05/28 12:28:03;;;;;;;9.80;3.95;;;;;;;;;;7370667;19;20010;-70
2023/05/28 12:30:29;;;;;;;8.18;3.85;;;;;;;;;;7396051;19;20006;-69
2023/05/28 12:32:54;;;;;;;6.60;4.03;;;;;;;;;;7374094;19;20165;-69
2023/05/28 12:35:19;;;;;;;8.23;4.00;;;;;;;;;;7373622;19;20011;-69
2023/05/28 12:37:45;;;;;;;8.43;4.40;;;;;;;;;;7371056;19;20037;-68
2023/05/28 12:40:11;;;;;;;9.88;4.47;;;;;;;;;;7372992;19;20010;-70
2023/05/28 12:42:36;;;;;;;10.40;4.35;;;;;;;;;;7373688;19;20067;-70
2023/05/28 12:45:02;;;;;;;9.25;4.10;;;;;;;;;;7394562;19;20413;-70
2023/05/28 12:47:27;;;;;;;8.40;3.90;;;;;;;;;;7371736;19;20512;-70
2023/05/28 12:49:52;;;;;;;9.77;4.15;;;;;;;;;;7373870;19;20041;-70
2023/05/28 12:52:18;;;;;;;7.95;3.92;;;;;;;;;;7374960;19;20010;-71
2023/05/28 12:54:43;;;;;;;8.23;4.13;;;;;;;;;;7375044;19;20488;-70
2023/05/28 12:57:08;;;;;;;6.43;3.73;;;;;;;;;;7395223;19;20003;-69
2023/05/28 12:59:34;;;;;;;6.13;3.63;;;;;;;;;;7370551;19;20278;-69
2023/05/28 13:01:59;;;;;;;8.20;4.30;;;;;;;;;;7374099;19;20007;-69
2023/05/28 13:04:24;;;;;;;8.45;4.43;;;;;;;;;;7374797;19;20028;-69
2023/05/28 13:06:51;;;;;;;7.45;4.28;;;;;;;;;;7375379;19;20058;-69
2023/05/28 13:09:17;;;;;;;9.48;3.95;;;;;;;;;;7395491;19;20014;-70
2023/05/28 13:11:43;;;;;;;7.63;4.35;;;;;;;;;;7371850;19;20011;-69
2023/05/28 13:14:08;;;;;;;6.60;4.10;;;;;;;;;;7373930;19;20082;-69
2023/05/28 13:16:35;;;;;;;8.57;4.15;;;;;;;;;;7372722;19;20101;-69
2023/05/28 13:19:03;;;;;;;6.72;4.15;;;;;;;;;;7372483;19;20014;-69
2023/05/28 13:21:32;;;;;;;9.20;4.30;;;;;;;;;;7395083;19;20028;-70
2023/05/28 13:23:58;;;;;;;6.88;3.78;;;;;;;;;;7374056;19;20014;-69
2023/05/28 13:26:28;;;;;;;7.93;4.55;;;;;;;;;;7372737;19;20010;-69
2023/05/28 13:28:54;;;;;;;8.13;4.20;;;;;;;;;;7371175;19;20008;-69
2023/05/28 13:31:19;;;;;;;8.60;4.32;;;;;;;;;;7373664;19;20454;-69
2023/05/28 13:33:45;;;;;;;11.60;4.53;;;;;;;;;;7373751;19;20006;-70
2023/05/28 13:36:11;;;;;;;7.90;4.40;;;;;;;;;;7394417;19;20003;-70
2023/05/28 13:38:37;;;;;;;8.10;4.00;;;;;;;;;;7367800;19;20419;-70
2023/05/28 13:41:03;;;;;;;8.05;4.57;;;;;;;;;;7370416;19;20058;-69
2023/05/28 13:43:29;;;;;;;12.13;4.85;;;;;;;;;;7373188;19;20374;-69
2023/05/28 13:45:55;;;;;;;9.68;5.10;;;;;;;;;;7372709;19;20222;-70
2023/05/28 13:48:20;;;;;;;8.70;5.03;;;;;;;;;;7390045;19;20034;-70
2023/05/28 13:50:45;;;;;;;8.52;4.88;;;;;;;;;;7369513;19;20010;-69
2023/05/28 13:53:11;;;;;;;8.40;4.70;;;;;;;;;;7370817;19;20085;-69
2023/05/28 13:55:36;;;;;;;9.27;4.80;;;;;;;;;;7372037;19;20125;-68
2023/05/28 13:58:01;;;;;;;7.53;4.35;;;;;;;;;;7368808;19;20051;-68
2023/05/28 14:00:27;;;;;;;7.88;4.75;;;;;;;;;;7393434;19;20020;-69
2023/05/28 14:02:52;;;;;;;10.20;4.82;;;;;;;;;;7372177;19;20017;-69
2023/05/28 14:05:17;;;;;;;12.02;5.43;;;;;;;;;;7372634;19;20077;-70
2023/05/28 14:07:43;;;;;;;8.50;4.40;;;;;;;;;;7369054;19;20014;-69
2023/05/28 14:10:08;;;;;;;7.50;4.20;;;;;;;;;;7371691;19;20373;-69
2023/05/28 14:12:34;;;;;;;8.52;4.35;;;;;;;;;;7394242;19;20018;-69
2023/05/28 14:14:59;;;;;;;9.20;4.45;;;;;;;;;;7370308;19;20014;-69
2023/05/28 14:17:25;;;;;;;7.85;3.20;;;;;;;;;;7369087;19;20010;-68
2023/05/28 14:19:51;;;;;;;7.97;4.20;;;;;;;;;;7370201;19;20006;-68
2023/05/28 14:22:16;;;;;;;7.38;4.45;;;;;;;;;;7370721;19;20248;-69
2023/05/28 14:24:41;;;;;;;10.40;4.60;;;;;;;;;;7364449;19;20083;-69
2023/05/28 14:27:07;;;;;;;8.07;4.32;;;;;;;;;;7393592;19;20011;-69
2023/05/28 14:29:32;;;;;;;10.18;4.45;;;;;;;;;;7369531;19;20660;-69
2023/05/28 14:31:57;;;;;;;13.23;4.32;;;;;;;;;;7371672;19;20010;-69
2023/05/28 14:34:23;;;;;;;7.25;4.20;;;;;;;;;;7372030;19;20035;-69
2023/05/28 14:36:48;;;;;;;9.57;4.40;;;;;;;;;;7370148;19;20030;-69
2023/05/28 14:39:13;;;;;;;8.98;4.78;;;;;;;;;;7389564;19;20003;-69
2023/05/28 14:41:39;;;;;;;9.13;4.80;;;;;;;;;;7370873;19;20014;-69